Time;durP1;ratioP1;P1;durP2;ratioP2;P2;SDS_P1;SDS_P2;PMS_P1;PMS_P2;Temp;Humidity;BMP_temperature;BMP_pressure;BME280_temperature;BME280_humidity;BME280_pressure;Samples;Min_cycle;Max_cycle;Signal;HPM_P1;HPM_P2
2021/06/01 00:00:13;;;;;;;7.38;2.22;;;13.60;94.00;;;;;;4991282;28;20038;-61
2021/06/01 00:02:47;;;;;;;3.28;1.80;;;13.50;94.50;;;;;;5005519;28;20463;-60
2021/06/01 00:05:16;;;;;;;3.97;2.20;;;13.50;93.40;;;;;;4991722;28;20145;-57
2021/06/01 00:07:45;;;;;;;6.05;2.10;;;13.50;93.30;;;;;;4995837;28;20042;-60
2021/06/01 00:10:12;;;;;;;6.40;1.60;;;13.50;93.50;;;;;;4998322;28;20121;-61
2021/06/01 00:12:37;;;;;;;2.88;2.00;;;13.50;93.10;;;;;;4996214;28;20030;-60
2021/06/01 00:15:05;;;;;;;3.42;1.58;;;13.50;93.00;;;;;;4997011;28;20254;-60
2021/06/01 00:17:40;;;;;;;3.28;1.95;;;13.40;94.00;;;;;;4974971;28;20145;-59
2021/06/01 00:20:09;;;;;;;3.60;1.60;;;13.40;92.30;;;;;;4995417;28;20030;-59
2021/06/01 00:22:37;;;;;;;4.28;1.65;;;13.50;91.50;;;;;;4998025;28;20051;-57
2021/06/01 00:25:04;;;;;;;6.70;1.95;;;13.60;91.60;;;;;;4991595;28;20034;-56
2021/06/01 00:27:30;;;;;;;7.47;2.00;;;13.70;91.50;;;;;;4994057;28;20024;-58
2021/06/01 00:29:55;;;;;;;3.50;2.00;;;13.80;91.20;;;;;;4996875;28;20541;-58
2021/06/01 00:32:21;;;;;;;3.05;1.80;;;13.80;91.10;;;;;;4994764;28;20121;-58
2021/06/01 00:34:49;;;;;;;5.40;2.15;;;13.80;90.90;;;;;;4987336;28;20057;-57
2021/06/01 00:37:15;;;;;;;3.50;1.80;;;13.90;90.70;;;;;;4983088;28;20133;-59
2021/06/01 00:39:40;;;;;;;3.42;1.95;;;13.80;90.30;;;;;;4988457;28;20403;-60
2021/06/01 00:42:06;;;;;;;2.85;1.60;;;13.80;89.70;;;;;;4972327;28;20026;-56
2021/06/01 00:44:32;;;;;;;5.10;1.73;;;13.80;90.10;;;;;;4987065;28;20446;-57
2021/06/01 00:46:58;;;;;;;3.80;1.90;;;13.80;90.10;;;;;;4990452;28;20065;-59
2021/06/01 00:49:23;;;;;;;3.70;1.95;;;13.80;90.30;;;;;;4991279;28;20388;-56
2021/06/01 00:51:49;;;;;;;4.90;1.80;;;13.70;90.30;;;;;;4997057;28;20046;-59
2021/06/01 00:54:14;;;;;;;4.15;2.00;;;13.80;90.10;;;;;;4996203;28;20030;-59
2021/06/01 00:56:42;;;;;;;5.75;3.00;;;13.80;90.00;;;;;;4988457;28;20030;-58
2021/06/01 00:59:07;;;;;;;3.17;1.80;;;13.80;90.20;;;;;;4994121;28;20018;-59
2021/06/01 01:01:33;;;;;;;2.47;1.70;;;13.80;89.70;;;;;;4998994;28;20035;-60
2021/06/01 01:03:59;;;;;;;3.90;2.38;;;13.70;89.60;;;;;;5002487;28;20524;-59
2021/06/01 01:06:56;;;;;;;3.72;2.10;;;13.70;90.10;;;;;;5002586;28;20044;-60
2021/06/01 01:09:18;;;;;;;3.88;2.30;;;13.70;90.00;;;;;;4993363;28;20463;-56
2021/06/01 01:12:28;;;;;;;5.47;2.22;;;13.70;90.10;;;;;;4988175;28;20022;-55
2021/06/01 01:14:59;;;;;;;3.30;1.85;;;13.70;90.10;;;;;;4965505;28;20042;-60
2021/06/01 01:18:07;;;;;;;4.13;2.20;;;13.60;90.20;;;;;;4934883;28;20046;-57
2021/06/01 01:21:04;;;;;;;4.32;1.60;;;13.60;90.20;;;;;;4889745;29;20060;-59
2021/06/01 01:23:32;;;;;;;2.50;1.52;;;13.60;90.40;;;;;;4869176;29;20033;-60
2021/06/01 01:26:24;;;;;;;2.92;2.00;;;13.60;90.50;;;;;;4971818;28;20033;-60
2021/06/01 01:29:15;;;;;;;4.85;1.92;;;13.60;90.50;;;;;;4991874;28;20073;-61
2021/06/01 01:31:52;;;;;;;3.45;1.90;;;13.50;90.50;;;;;;4987514;28;20026;-60
2021/06/01 01:34:19;;;;;;;4.60;2.08;;;13.60;90.90;;;;;;4996293;28;20038;-59
2021/06/01 01:36:46;;;;;;;4.80;2.13;;;13.50;91.20;;;;;;5001100;28;20448;-59
2021/06/01 01:39:13;;;;;;;5.30;2.08;;;13.40;92.10;;;;;;5002270;28;20040;-58
2021/06/01 01:41:40;;;;;;;2.85;1.83;;;13.40;91.40;;;;;;4991164;28;20055;-59
2021/06/01 01:44:11;;;;;;;3.63;2.15;;;13.40;91.10;;;;;;4996613;28;20026;-58
2021/06/01 01:49:17;;;;;;;;;;;13.30;91.70;;;;;;5006820;28;20092;-59
2021/06/01 01:51:50;;;;;;;3.83;2.38;;;13.30;91.50;;;;;;5000159;28;20004;-59
2021/06/01 01:54:18;;;;;;;5.72;2.17;;;13.30;91.90;;;;;;5001526;28;20112;-58
2021/06/01 01:56:48;;;;;;;4.10;2.15;;;13.20;91.90;;;;;;4996345;28;20077;-59
2021/06/01 01:59:20;;;;;;;6.50;2.50;;;13.10;92.60;;;;;;5003049;28;20581;-57
2021/06/01 02:01:50;;;;;;;3.33;2.30;;;13.10;92.30;;;;;;4991038;28;20073;-56
2021/06/01 02:04:26;;;;;;;8.52;2.22;;;13.00;94.40;;;;;;4995564;28;20519;-59
2021/06/01 02:06:53;;;;;;;5.05;2.50;;;12.90;93.70;;;;;;5004436;28;20032;-59
2021/06/01 02:09:19;;;;;;;5.88;2.22;;;12.70;94.50;;;;;;5000091;28;20038;-61
2021/06/01 02:11:45;;;;;;;6.57;2.35;;;12.60;96.00;;;;;;5005090;28;20033;-57
2021/06/01 02:14:11;;;;;;;8.15;2.25;;;12.50;95.50;;;;;;4996191;28;20022;-58
2021/06/01 02:16:44;;;;;;;8.38;2.30;;;12.40;95.80;;;;;;4999775;28;20045;-58
2021/06/01 02:19:16;;;;;;;4.18;2.13;;;12.30;96.10;;;;;;4972328;28;20439;-62
2021/06/01 02:24:31;;;;;;;3.28;2.30;;;12.30;95.90;;;;;;5000991;28;20071;-58
2021/06/01 02:27:19;;;;;;;5.55;2.35;;;12.20;96.70;;;;;;4995994;28;20448;-58
2021/06/01 02:30:09;;;;;;;7.97;2.00;;;12.20;96.10;;;;;;4992363;28;20034;-60
2021/06/01 02:32:39;;;;;;;5.63;2.25;;;12.10;97.20;;;;;;4993721;28;20026;-57
2021/06/01 02:35:38;;;;;;;6.25;3.35;;;12.10;96.60;;;;;;5007946;28;20026;-59
2021/06/01 02:38:06;;;;;;;10.30;3.47;;;12.00;97.50;;;;;;4979583;28;20026;-59
2021/06/01 02:40:34;;;;;;;5.95;2.88;;;12.00;98.20;;;;;;4992574;28;20496;-57
2021/06/01 02:43:03;;;;;;;4.38;2.60;;;12.00;97.70;;;;;;4990119;28;20037;-57
2021/06/01 02:45:31;;;;;;;7.03;2.40;;;11.90;97.80;;;;;;4988806;28;20508;-59
2021/06/01 02:47:56;;;;;;;6.07;2.40;;;11.90;97.80;;;;;;4990912;28;20022;-58
2021/06/01 02:50:23;;;;;;;5.30;2.53;;;12.00;97.50;;;;;;5006182;28;20037;-56
2021/06/01 02:52:51;;;;;;;5.13;2.25;;;12.00;97.20;;;;;;4980297;28;20102;-58
2021/06/01 02:55:18;;;;;;;4.55;2.70;;;12.10;97.40;;;;;;4990827;28;20027;-58
2021/06/01 02:57:46;;;;;;;5.43;2.30;;;12.10;97.20;;;;;;5005976;28;20500;-57
2021/06/01 03:00:15;;;;;;;5.20;3.03;;;12.10;97.10;;;;;;4998165;28;20041;-59
2021/06/01 03:02:41;;;;;;;3.58;2.47;;;12.10;97.10;;;;;;4999067;28;20379;-55
2021/06/01 03:05:07;;;;;;;5.55;2.47;;;12.10;97.40;;;;;;5002970;28;20034;-56
2021/06/01 03:07:36;;;;;;;4.13;2.35;;;11.90;98.80;;;;;;4995163;28;20044;-58
2021/06/01 03:10:03;;;;;;;4.40;2.80;;;11.80;99.90;;;;;;4998343;28;20030;-57
2021/06/01 03:14:57;;;;;;;4.18;2.42;;;11.70;98.80;;;;;;4995893;28;20053;-55
2021/06/01 03:17:26;;;;;;;3.50;2.38;;;11.70;98.50;;;;;;4982637;28;20050;-58
2021/06/01 03:19:52;;;;;;;4.65;2.55;;;11.70;99.00;;;;;;4995088;28;20092;-55
2021/06/01 03:22:17;;;;;;;5.70;2.50;;;11.80;99.00;;;;;;5001676;28;20026;-56
2021/06/01 03:24:43;;;;;;;4.35;2.10;;;11.80;98.50;;;;;;4991923;28;20535;-59
2021/06/01 03:27:09;;;;;;;5.55;2.80;;;11.80;98.40;;;;;;4992931;28;20022;-60
2021/06/01 03:29:34;;;;;;;4.10;2.30;;;11.90;98.10;;;;;;4995935;28;20030;-59
2021/06/01 03:32:00;;;;;;;6.07;2.40;;;12.00;98.10;;;;;;4992063;28;20078;-55
2021/06/01 03:34:26;;;;;;;4.47;2.50;;;12.00;98.10;;;;;;4993240;28;20030;-57
2021/06/01 03:36:52;;;;;;;6.80;2.30;;;12.00;98.10;;;;;;4999329;28;20513;-58
2021/06/01 03:39:20;;;;;;;4.80;2.40;;;12.00;98.10;;;;;;4997660;28;20030;-57
2021/06/01 03:41:46;;;;;;;4.65;2.40;;;12.00;98.10;;;;;;5000998;28;20030;-57
2021/06/01 03:44:12;;;;;;;6.10;2.50;;;12.00;98.30;;;;;;4997575;28;20021;-59
2021/06/01 03:46:38;;;;;;;5.22;2.20;;;12.00;98.30;;;;;;5002197;28;20064;-57
2021/06/01 03:49:03;;;;;;;4.57;2.50;;;12.10;98.00;;;;;;4995647;28;20049;-58
2021/06/01 03:51:29;;;;;;;8.38;2.50;;;12.10;98.10;;;;;;4998939;28;20093;-59
2021/06/01 03:53:54;;;;;;;6.55;3.55;;;12.20;98.00;;;;;;4983182;28;20022;-58
2021/06/01 03:56:20;;;;;;;4.72;2.42;;;12.20;98.00;;;;;;4997017;28;20066;-58
2021/06/01 03:58:46;;;;;;;4.03;2.80;;;12.20;97.90;;;;;;4996256;28;20137;-55
2021/06/01 04:01:15;;;;;;;4.90;2.58;;;12.20;98.00;;;;;;4999644;28;20111;-59
2021/06/01 04:03:41;;;;;;;3.85;2.17;;;12.30;97.70;;;;;;4998997;28;20049;-59
2021/06/01 04:06:11;;;;;;;2.83;1.95;;;12.30;97.70;;;;;;5001031;28;20029;-59
2021/06/01 04:08:37;;;;;;;3.63;2.10;;;12.30;97.30;;;;;;4998289;28;20042;-59
2021/06/01 04:11:03;;;;;;;3.08;2.30;;;12.30;97.80;;;;;;5002020;28;20053;-58
2021/06/01 04:13:28;;;;;;;4.15;2.45;;;12.40;97.60;;;;;;4999519;28;20058;-59
2021/06/01 04:15:57;;;;;;;6.72;2.55;;;12.40;97.40;;;;;;4997998;28;20050;-59
2021/06/01 04:18:23;;;;;;;3.35;2.28;;;12.40;97.90;;;;;;4980143;28;20111;-58
2021/06/01 04:20:49;;;;;;;4.07;2.63;;;12.50;97.40;;;;;;5004094;28;20033;-57
2021/06/01 04:23:15;;;;;;;3.22;2.22;;;12.60;97.40;;;;;;4997125;28;20360;-57
2021/06/01 04:25:41;;;;;;;3.80;2.38;;;12.80;97.10;;;;;;4998473;28;20034;-59
2021/06/01 04:28:06;;;;;;;3.42;2.20;;;13.20;96.40;;;;;;4999986;28;20026;-59
2021/06/01 04:30:35;;;;;;;4.32;2.47;;;14.00;95.80;;;;;;5001925;28;20054;-56
2021/06/01 04:33:01;;;;;;;5.30;2.30;;;15.10;93.40;;;;;;4980220;28;20397;-59
2021/06/01 04:35:27;;;;;;;3.55;2.40;;;16.40;90.80;;;;;;4989151;28;20037;-58
2021/06/01 04:37:53;;;;;;;3.17;2.20;;;17.90;85.80;;;;;;4989783;28;20033;-58
2021/06/01 04:40:20;;;;;;;4.93;2.60;;;19.40;79.30;;;;;;4978120;28;20088;-58
2021/06/01 04:42:49;;;;;;;3.58;2.05;;;20.70;71.70;;;;;;4983196;28;20030;-59
2021/06/01 04:45:15;;;;;;;4.60;2.50;;;22.00;66.30;;;;;;4997913;28;20030;-58
2021/06/01 04:47:42;;;;;;;4.97;2.08;;;23.20;60.00;;;;;;4995251;28;20042;-60
2021/06/01 04:50:08;;;;;;;2.85;1.83;;;23.80;57.10;;;;;;4992430;28;20049;-59
2021/06/01 04:52:34;;;;;;;6.75;2.20;;;24.20;55.70;;;;;;4995197;28;20022;-55
2021/06/01 04:55:00;;;;;;;5.40;1.98;;;24.90;52.60;;;;;;4990394;28;20443;-60
2021/06/01 04:57:26;;;;;;;3.25;2.25;;;25.20;51.20;;;;;;4995459;28;20451;-59
2021/06/01 04:59:51;;;;;;;6.22;2.20;;;25.60;50.10;;;;;;4994145;28;20022;-59
2021/06/01 05:02:17;;;;;;;3.03;2.20;;;25.70;49.20;;;;;;4998087;28;20077;-58
2021/06/01 05:04:42;;;;;;;5.03;2.03;;;25.70;48.90;;;;;;5000660;28;20029;-60
2021/06/01 05:07:08;;;;;;;2.67;1.85;;;25.90;48.50;;;;;;4969247;28;20125;-59
2021/06/01 05:09:34;;;;;;;4.35;2.13;;;25.80;48.50;;;;;;4990047;28;21067;-59
2021/06/01 05:11:59;;;;;;;2.45;1.73;;;26.40;48.30;;;;;;4989815;28;20388;-60
2021/06/01 05:14:27;;;;;;;2.67;1.70;;;27.10;47.10;;;;;;4990767;28;20038;-60
2021/06/01 05:16:53;;;;;;;3.75;2.25;;;27.10;46.60;;;;;;4995428;28;20523;-58
2021/06/01 05:19:18;;;;;;;4.93;1.63;;;27.60;45.00;;;;;;4986000;28;20042;-58
2021/06/01 05:21:44;;;;;;;7.65;2.17;;;27.90;44.80;;;;;;4994223;28;20675;-59
2021/06/01 05:24:11;;;;;;;7.50;2.20;;;28.20;43.80;;;;;;5002757;28;20583;-59
2021/06/01 05:26:39;;;;;;;3.58;1.77;;;27.50;43.30;;;;;;4999513;28;20038;-56
2021/06/01 05:29:05;;;;;;;6.90;2.20;;;27.70;44.70;;;;;;5002822;28;20026;-59
2021/06/01 05:34:10;;;;;;;3.03;1.80;;;28.50;43.50;;;;;;4990425;28;20037;-61
2021/06/01 05:36:35;;;;;;;6.60;2.25;;;28.90;43.60;;;;;;4997422;28;21792;-55
2021/06/01 05:39:01;;;;;;;3.20;1.88;;;29.30;41.70;;;;;;4990487;28;20036;-59
2021/06/01 05:41:27;;;;;;;3.80;2.38;;;29.00;41.30;;;;;;4989977;28;20034;-60
2021/06/01 05:43:52;;;;;;;5.50;2.25;;;28.60;42.90;;;;;;4985954;28;20784;-58
2021/06/01 05:46:18;;;;;;;2.53;1.92;;;29.00;41.70;;;;;;4999989;28;20491;-60
2021/06/01 05:48:46;;;;;;;3.75;1.85;;;28.60;42.80;;;;;;4993808;28;20034;-59
2021/06/01 05:51:12;;;;;;;2.67;1.90;;;29.70;41.10;;;;;;4999774;28;20113;-58
2021/06/01 05:53:38;;;;;;;2.70;1.88;;;29.10;42.30;;;;;;4988928;28;20057;-55
2021/06/01 05:56:04;;;;;;;3.08;1.77;;;29.30;41.40;;;;;;5000637;28;20027;-57
2021/06/01 05:58:30;;;;;;;4.82;1.90;;;28.70;41.40;;;;;;4991077;28;20117;-58
2021/06/01 06:00:55;;;;;;;3.45;2.20;;;29.10;42.00;;;;;;5001822;28;20104;-58
2021/06/01 06:03:21;;;;;;;3.75;2.40;;;29.20;41.30;;;;;;5000504;28;20027;-58
2021/06/01 06:05:47;;;;;;;4.82;2.45;;;29.40;41.30;;;;;;4993282;28;20039;-60
2021/06/01 06:08:18;;;;;;;6.22;2.30;;;29.70;39.90;;;;;;4993586;28;20061;-59
2021/06/01 06:10:45;;;;;;;3.10;1.80;;;30.50;39.80;;;;;;4995038;28;20034;-58
2021/06/01 06:13:11;;;;;;;2.15;1.92;;;31.70;38.80;;;;;;4992354;28;20026;-61
2021/06/01 06:15:38;;;;;;;6.95;2.03;;;31.50;37.40;;;;;;4993603;28;20077;-58
2021/06/01 06:18:14;;;;;;;3.55;2.20;;;32.10;38.10;;;;;;4986881;28;20105;-60
2021/06/01 06:20:40;;;;;;;4.65;1.90;;;33.10;36.80;;;;;;5003800;28;20038;-62
2021/06/01 06:23:05;;;;;;;3.45;1.67;;;32.20;37.40;;;;;;5001281;28;20499;-59
2021/06/01 06:25:31;;;;;;;4.35;1.88;;;31.60;36.90;;;;;;4988485;28;20026;-57
2021/06/01 06:27:57;;;;;;;4.57;2.15;;;30.40;37.30;;;;;;4995492;28;20029;-59
2021/06/01 06:30:24;;;;;;;2.75;1.90;;;30.90;37.70;;;;;;4999595;28;20172;-60
2021/06/01 06:32:51;;;;;;;2.80;1.88;;;30.10;38.60;;;;;;4996650;28;20117;-60
2021/06/01 06:35:17;;;;;;;4.43;1.98;;;31.10;39.40;;;;;;4999986;28;20026;-60
2021/06/01 06:37:43;;;;;;;2.00;1.80;;;30.40;39.30;;;;;;4996532;28;20022;-59
2021/06/01 06:40:10;;;;;;;2.47;1.75;;;30.70;37.80;;;;;;5003068;28;20384;-60
2021/06/01 06:42:37;;;;;;;4.90;2.20;;;30.70;38.50;;;;;;4994055;28;20037;-58
2021/06/01 06:45:06;;;;;;;2.83;1.70;;;31.10;37.20;;;;;;4989313;28;20659;-60
2021/06/01 06:50:19;;;;;;;6.03;2.35;;;31.90;37.70;;;;;;4999880;28;20048;-60
2021/06/01 06:52:45;;;;;;;3.35;1.90;;;33.10;36.40;;;;;;5001435;28;20660;-60
2021/06/01 06:55:12;;;;;;;2.92;1.77;;;32.90;36.90;;;;;;4996345;28;20454;-61
2021/06/01 06:57:39;;;;;;;2.97;2.25;;;31.60;35.90;;;;;;4997772;28;20026;-60
2021/06/01 07:00:08;;;;;;;4.57;2.20;;;31.20;37.40;;;;;;4990980;28;20029;-60
2021/06/01 07:02:34;;;;;;;3.72;1.92;;;31.60;36.90;;;;;;5000792;28;20038;-60
2021/06/01 07:05:00;;;;;;;3.90;1.77;;;32.20;36.60;;;;;;4999949;28;20025;-61
2021/06/01 07:07:26;;;;;;;3.47;1.70;;;32.10;35.80;;;;;;4990901;28;20030;-59
2021/06/01 07:09:52;;;;;;;5.63;2.15;;;31.90;37.30;;;;;;4990713;28;20495;-60
2021/06/01 07:12:18;;;;;;;4.03;1.90;;;32.40;35.90;;;;;;4989200;28;20062;-61
2021/06/01 07:15:11;;;;;;;5.60;1.80;;;33.50;35.40;;;;;;4988920;28;21299;-58
2021/06/01 07:17:38;;;;;;;4.70;1.90;;;34.20;34.90;;;;;;4990539;28;20104;-57
2021/06/01 07:20:06;;;;;;;3.45;2.25;;;34.20;34.30;;;;;;4981567;28;20074;-60
2021/06/01 07:22:32;;;;;;;1.95;1.70;;;33.20;35.40;;;;;;4999018;28;20481;-62
2021/06/01 07:24:58;;;;;;;5.13;1.83;;;33.30;35.50;;;;;;4995642;28;20040;-59
2021/06/01 07:27:23;;;;;;;2.65;1.67;;;33.10;34.70;;;;;;4997400;28;20455;-61
2021/06/01 07:29:49;;;;;;;1.98;1.65;;;33.20;35.00;;;;;;5006846;28;20026;-60
2021/06/01 07:32:15;;;;;;;2.35;1.80;;;34.10;34.90;;;;;;4992267;28;20554;-59
2021/06/01 07:34:41;;;;;;;6.25;2.17;;;33.40;33.90;;;;;;4999371;28;20050;-59
2021/06/01 07:37:07;;;;;;;2.90;1.60;;;34.10;34.60;;;;;;4988421;28;20140;-61
2021/06/01 07:39:32;;;;;;;3.50;1.80;;;33.60;35.40;;;;;;4997111;28;20053;-59
2021/06/01 07:41:58;;;;;;;4.15;1.70;;;33.80;33.10;;;;;;4989452;28;20050;-59
2021/06/01 07:44:24;;;;;;;2.58;1.63;;;34.00;33.40;;;;;;5001379;28;20103;-60
2021/06/01 07:46:50;;;;;;;1.88;1.67;;;33.80;35.10;;;;;;4997045;28;20029;-61
2021/06/01 07:49:16;;;;;;;4.03;1.63;;;33.70;34.40;;;;;;4990298;28;20039;-60
2021/06/01 07:51:41;;;;;;;4.28;1.50;;;34.50;34.50;;;;;;4990914;28;20034;-60
2021/06/01 07:54:07;;;;;;;2.50;1.75;;;35.20;33.40;;;;;;4989121;28;20530;-61
2021/06/01 07:56:34;;;;;;;5.18;1.67;;;35.90;32.20;;;;;;4997380;28;20436;-62
2021/06/01 07:59:01;;;;;;;3.38;1.58;;;35.10;33.80;;;;;;4998349;28;20021;-58
2021/06/01 08:01:29;;;;;;;4.65;1.70;;;35.10;31.90;;;;;;4998877;28;20057;-59
2021/06/01 08:03:56;;;;;;;2.30;1.48;;;35.60;31.70;;;;;;5002651;28;20021;-59
2021/06/01 08:06:23;;;;;;;3.90;1.40;;;35.00;33.30;;;;;;4995326;28;20042;-59
2021/06/01 08:08:52;;;;;;;5.00;1.65;;;35.20;31.60;;;;;;5000495;28;20027;-60
2021/06/01 08:11:18;;;;;;;2.55;1.80;;;35.60;31.80;;;;;;4992030;28;20068;-59
2021/06/01 08:13:44;;;;;;;3.83;1.63;;;35.90;30.40;;;;;;4999185;28;20026;-59
2021/06/01 08:16:09;;;;;;;1.80;1.23;;;35.30;32.00;;;;;;5002480;28;20014;-59
2021/06/01 08:18:41;;;;;;;2.70;1.33;;;35.20;29.60;;;;;;4979147;28;20030;-61
2021/06/01 08:23:32;;;;;;;4.18;1.30;;;34.50;29.70;;;;;;4988389;28;20069;-59
2021/06/01 08:25:58;;;;;;;2.50;1.60;;;34.80;31.20;;;;;;4984784;28;20523;-58
2021/06/01 08:28:24;;;;;;;3.30;1.30;;;34.40;32.30;;;;;;4987119;28;20026;-60
2021/06/01 08:30:51;;;;;;;6.70;1.70;;;34.40;32.50;;;;;;4988311;28;20470;-60
2021/06/01 08:33:17;;;;;;;2.58;1.30;;;34.40;30.70;;;;;;4988714;28;20411;-59
2021/06/01 08:35:43;;;;;;;3.13;1.13;;;34.00;29.50;;;;;;4998086;28;20018;-60
2021/06/01 08:38:12;;;;;;;1.70;1.40;;;33.70;29.90;;;;;;4989281;28;20388;-60
2021/06/01 08:40:39;;;;;;;5.88;1.85;;;34.10;30.40;;;;;;4997640;28;20408;-57
2021/06/01 08:43:16;;;;;;;1.40;1.30;;;34.00;30.10;;;;;;4992078;28;20038;-59
2021/06/01 08:45:48;;;;;;;4.78;1.25;;;33.00;31.30;;;;;;4993699;28;20037;-59
2021/06/01 08:48:15;;;;;;;4.40;2.00;;;33.00;30.20;;;;;;4983698;28;20085;-59
2021/06/01 08:50:40;;;;;;;1.73;1.48;;;33.40;30.10;;;;;;4987393;28;20030;-58
2021/06/01 08:53:06;;;;;;;3.17;1.10;;;33.70;31.00;;;;;;4982648;28;20026;-60
2021/06/01 08:55:31;;;;;;;3.35;1.15;;;32.70;29.90;;;;;;5000151;28;20023;-61
2021/06/01 08:58:04;;;;;;;4.47;1.48;;;33.10;30.60;;;;;;4990620;28;20046;-60
2021/06/01 09:00:32;;;;;;;3.47;1.15;;;33.40;32.30;;;;;;4990973;28;20037;-58
2021/06/01 09:03:13;;;;;;;1.70;1.20;;;34.30;30.60;;;;;;4997436;28;20022;-57
2021/06/01 09:08:52;;;;;;;3.35;1.20;;;33.50;29.30;;;;;;4993969;28;20028;-60
2021/06/01 09:11:36;;;;;;;3.28;1.58;;;33.10;30.20;;;;;;4986638;28;20030;-60
2021/06/01 09:22:33;;;;;;;4.22;1.83;;;31.80;30.50;;;;;;4995665;28;20037;-57
2021/06/01 09:25:13;;;;;;;1.88;1.70;;;32.50;31.50;;;;;;4982199;28;20038;-57
2021/06/01 09:27:51;;;;;;;2.33;1.55;;;32.70;31.80;;;;;;4987440;28;20041;-61
2021/06/01 09:30:35;;;;;;;2.25;1.23;;;32.70;32.20;;;;;;4990055;28;20117;-59
2021/06/01 09:33:02;;;;;;;2.97;1.50;;;32.20;32.40;;;;;;4988982;28;20022;-59
2021/06/01 09:35:41;;;;;;;5.32;1.50;;;32.40;33.60;;;;;;4991001;28;20482;-58
2021/06/01 09:38:07;;;;;;;3.50;1.17;;;33.20;32.50;;;;;;4989528;28;20022;-60
2021/06/01 09:40:33;;;;;;;1.60;1.30;;;33.50;32.60;;;;;;4985449;28;20034;-57
2021/06/01 09:42:59;;;;;;;2.65;1.33;;;33.60;32.20;;;;;;4991133;28;20026;-57
2021/06/01 09:45:25;;;;;;;2.95;1.42;;;33.20;31.60;;;;;;4984864;28;20033;-58
2021/06/01 09:47:55;;;;;;;1.77;1.40;;;33.20;31.70;;;;;;4983746;28;20041;-58
2021/06/01 09:53:28;;;;;;;3.60;1.13;;;33.70;31.30;;;;;;4990074;28;20029;-60
2021/06/01 09:55:55;;;;;;;2.35;1.60;;;33.10;30.80;;;;;;4991382;28;20025;-59
2021/06/01 09:58:35;;;;;;;3.15;1.38;;;32.20;31.00;;;;;;4995359;28;20104;-59
2021/06/01 10:01:05;;;;;;;3.47;1.65;;;32.00;31.30;;;;;;4992311;28;20084;-59
2021/06/01 10:03:50;;;;;;;2.15;1.50;;;31.90;33.60;;;;;;5001412;28;20045;-58
2021/06/01 10:06:17;;;;;;;2.33;1.60;;;31.20;32.10;;;;;;4990674;28;20030;-58
2021/06/01 10:08:53;;;;;;;4.82;1.70;;;31.00;33.60;;;;;;4983176;28;20026;-58
2021/06/01 10:11:22;;;;;;;2.45;1.90;;;30.90;34.60;;;;;;4994227;28;20038;-59
2021/06/01 10:13:47;;;;;;;2.17;1.75;;;30.90;35.30;;;;;;4996140;28;20034;-58
2021/06/01 10:16:18;;;;;;;5.43;1.77;;;30.50;35.10;;;;;;5003221;28;20029;-61
2021/06/01 10:18:45;;;;;;;2.15;1.60;;;30.30;37.20;;;;;;4995052;28;20122;-59
2021/06/01 10:21:21;;;;;;;4.40;1.90;;;29.80;33.80;;;;;;5010690;28;20479;-58
2021/06/01 10:23:50;;;;;;;2.65;2.05;;;29.40;35.50;;;;;;4990923;28;20037;-60
2021/06/01 10:26:16;;;;;;;3.08;1.80;;;28.70;34.50;;;;;;5002763;28;20053;-59
2021/06/01 10:28:46;;;;;;;3.15;2.13;;;28.30;35.60;;;;;;4997088;28;20038;-60
2021/06/01 10:31:16;;;;;;;2.88;1.85;;;28.20;35.50;;;;;;4999426;28;20061;-59
2021/06/01 10:33:46;;;;;;;3.05;2.40;;;28.30;38.60;;;;;;5000941;28;20030;-57
2021/06/01 10:53:19;;;;;;;2.95;1.95;;;27.80;39.60;;;;;;4993899;28;20555;-58
2021/06/01 10:55:52;;;;;;;3.72;1.85;;;27.70;40.30;;;;;;4989779;28;20041;-57
2021/06/01 10:58:26;;;;;;;3.13;2.00;;;27.80;38.50;;;;;;4994184;28;20019;-57
2021/06/01 11:04:12;;;;;;;2.03;1.70;;;27.80;37.10;;;;;;5002566;28;20109;-59
2021/06/01 11:06:55;;;;;;;3.05;2.03;;;27.90;38.40;;;;;;4995612;28;20562;-57
2021/06/01 11:09:44;;;;;;;3.38;1.80;;;27.70;37.90;;;;;;4998519;28;20034;-57
2021/06/01 11:12:13;;;;;;;2.42;1.70;;;27.10;36.60;;;;;;4980674;28;20695;-56
2021/06/01 11:14:39;;;;;;;5.10;1.83;;;27.00;39.30;;;;;;4987756;28;20089;-58
2021/06/01 11:17:05;;;;;;;6.45;2.10;;;26.90;39.80;;;;;;4988555;28;20038;-58
2021/06/01 11:19:56;;;;;;;2.00;1.80;;;27.00;39.00;;;;;;4991277;28;20057;-58
2021/06/01 11:33:30;;;;;;;2.10;1.90;;;26.40;40.50;;;;;;4981277;28;20098;-56
2021/06/01 11:35:59;;;;;;;2.55;2.10;;;26.50;39.80;;;;;;4978882;28;20094;-58
2021/06/01 11:38:41;;;;;;;7.65;2.05;;;26.50;40.20;;;;;;4977452;28;20532;-58
2021/06/01 11:43:57;;;;;;;4.70;2.03;;;26.30;39.40;;;;;;4958467;28;20045;-58
2021/06/01 11:51:46;;;;;;;5.68;1.77;;;26.00;39.10;;;;;;4993519;28;20400;-58
2021/06/01 11:54:14;;;;;;;3.20;2.08;;;26.20;40.10;;;;;;4975345;28;20026;-58
2021/06/01 11:57:20;;;;;;;4.90;1.90;;;26.40;40.30;;;;;;4984975;28;20109;-56
2021/06/01 12:02:51;;;;;;;2.53;2.05;;;26.40;41.10;;;;;;4988809;28;20157;-56
2021/06/01 12:11:10;;;;;;;5.55;2.03;;;26.20;38.60;;;;;;4990226;28;20038;-56
2021/06/01 12:11:26;;;;;;;2.13;1.90;;;25.80;40.90;;;;;;4990172;28;20064;-55
2021/06/01 12:14:01;;;;;;;6.22;1.98;;;25.80;39.20;;;;;;4994896;28;20546;-56
2021/06/01 12:19:15;;;;;;;4.13;1.80;;;25.80;38.60;;;;;;4988297;28;20037;-58
2021/06/01 12:21:52;;;;;;;3.38;1.85;;;25.80;39.80;;;;;;4997258;28;20033;-54
2021/06/01 12:24:21;;;;;;;7.40;1.70;;;25.90;41.50;;;;;;4988492;28;20034;-56
2021/06/01 12:32:18;;;;;;;4.40;1.88;;;25.60;39.50;;;;;;4998682;28;19936;-59
2021/06/01 12:43:36;;;;;;;3.13;2.03;;;25.70;41.30;;;;;;4991949;28;20461;-59
2021/06/01 13:19:39;;;;;;;2.15;1.95;;;25.20;40.40;;;;;;4987568;28;20117;-58
2021/06/01 13:39:58;;;;;;;3.55;2.55;;;25.60;43.10;;;;;;4995939;28;20034;-57
2021/06/01 13:48:09;;;;;;;4.32;2.30;;;25.60;41.20;;;;;;4995046;28;20073;-58
2021/06/01 13:50:52;;;;;;;4.30;2.30;;;25.50;39.70;;;;;;5000211;28;20065;-58
2021/06/01 14:01:39;;;;;;;10.20;1.85;;;25.30;42.10;;;;;;4995745;28;20029;-57
2021/06/01 14:09:41;;;;;;;2.10;1.63;;;25.30;40.70;;;;;;4992836;28;20036;-60
2021/06/01 14:40:07;;;;;;;2.95;2.40;;;25.20;38.80;;;;;;4998386;28;20443;-60
2021/06/01 15:29:24;;;;;;;3.13;1.75;;;25.10;38.90;;;;;;4996789;28;20092;-58
2021/06/01 15:32:04;;;;;;;2.75;1.88;;;25.10;40.40;;;;;;5000433;28;20035;-57
2021/06/01 15:41:16;;;;;;;3.47;2.33;;;25.10;41.00;;;;;;5002935;28;20049;-57
2021/06/01 16:29:38;;;;;;;5.25;2.05;;;24.80;44.10;;;;;;5003175;28;20028;-58
2021/06/01 16:29:44;;;;;;;3.92;1.90;;;24.60;43.70;;;;;;4999680;28;20085;-57
2021/06/01 17:03:11;;;;;;;2.88;1.70;;;24.40;44.90;;;;;;4993933;28;20122;-54
2021/06/01 17:05:33;;;;;;;5.68;2.00;;;24.20;45.20;;;;;;4993811;28;20077;-60
2021/06/01 17:09:04;;;;;;;3.97;1.90;;;24.10;44.60;;;;;;4992075;28;20038;-59
2021/06/01 17:11:06;;;;;;;3.72;2.30;;;24.00;44.60;;;;;;4991204;28;20390;-58
2021/06/01 17:13:36;;;;;;;4.78;2.08;;;24.00;44.50;;;;;;4997395;28;20026;-60
2021/06/01 17:16:03;;;;;;;3.85;1.92;;;24.00;45.20;;;;;;4992997;28;20028;-58
2021/06/01 17:34:58;;;;;;;3.17;1.75;;;23.50;44.50;;;;;;4984031;28;20073;-58
2021/06/01 17:37:27;;;;;;;2.13;1.88;;;23.40;45.30;;;;;;4984868;28;20749;-58
2021/06/01 17:39:54;;;;;;;3.30;1.98;;;23.40;45.80;;;;;;4978889;28;20542;-57
2021/06/01 17:42:21;;;;;;;2.67;1.75;;;23.30;46.60;;;;;;4981138;28;20051;-57
2021/06/01 17:44:49;;;;;;;6.68;1.55;;;23.20;46.00;;;;;;4979897;28;20597;-58
2021/06/01 17:47:21;;;;;;;6.55;2.63;;;23.10;46.50;;;;;;4984441;28;20547;-56
2021/06/01 17:49:51;;;;;;;2.83;1.65;;;23.00;46.80;;;;;;4983009;28;20073;-59
2021/06/01 17:52:29;;;;;;;2.20;1.88;;;23.00;47.90;;;;;;4987777;28;20023;-57
2021/06/01 17:54:57;;;;;;;4.40;2.08;;;22.90;47.20;;;;;;4979721;28;20500;-58
2021/06/01 17:57:27;;;;;;;2.58;1.77;;;22.90;47.40;;;;;;4980188;28;20035;-59
2021/06/01 17:59:54;;;;;;;2.90;2.35;;;22.80;47.30;;;;;;4981783;28;20026;-57
2021/06/01 18:02:21;;;;;;;4.43;2.25;;;22.70;47.70;;;;;;4977901;28;20110;-58
2021/06/01 18:04:50;;;;;;;3.65;2.08;;;22.80;47.40;;;;;;4979964;28;20035;-56
2021/06/01 18:07:24;;;;;;;3.92;1.90;;;22.70;47.50;;;;;;4987251;28;20080;-55
2021/06/01 19:51:46;;;;;;;1.65;1.48;;;18.80;59.70;;;;;;4990389;28;20045;-59
2021/06/01 19:54:13;;;;;;;4.63;1.90;;;18.70;59.00;;;;;;4987421;28;20085;-59
2021/06/01 19:56:41;;;;;;;5.07;1.83;;;18.70;59.60;;;;;;4989643;28;20022;-60
2021/06/01 19:59:12;;;;;;;2.45;1.70;;;18.60;61.40;;;;;;4987139;28;20044;-59
2021/06/01 20:01:38;;;;;;;6.03;1.80;;;18.50;61.10;;;;;;4989263;28;20026;-58
2021/06/01 20:04:04;;;;;;;2.25;1.83;;;18.50;61.50;;;;;;4988436;28;20041;-57
2021/06/01 20:06:31;;;;;;;4.88;1.65;;;18.50;60.30;;;;;;4986087;28;20534;-59
2021/06/01 20:08:57;;;;;;;2.92;1.63;;;18.40;59.30;;;;;;4991515;28;20500;-59
2021/06/01 20:11:26;;;;;;;3.90;2.53;;;18.40;61.30;;;;;;4992188;28;20034;-59
2021/06/01 20:13:53;;;;;;;2.70;1.58;;;18.30;60.90;;;;;;4992418;28;20077;-60
2021/06/01 20:16:24;;;;;;;4.60;2.65;;;18.30;58.10;;;;;;4991072;28;20527;-59